Harry B. Settoon — WDE5658 — position and weather

sailwx.info

Track history (hours):
 
Tides and Currents Weather Stations Pressure Air Temp Water Temp Dewpoint Dewpoint Depression Visibility Wind Speed Wind Dir Waves Ship Positions

Harry B. Settoon

Owner: Settoon Towing, LLC, Houma, LA. More information available from US FCC via Universal Licensing System and Coast Guard Vessel Documentation Center.

Last reported at 2014-Dec-18 05:06 UTC. Time now 2014-Dec-20 14:23 UTC.
Position N 29°41' W 091°48'.

; draft 1.8 m.

Type: Tug. MMSI: 367369920.

Date/timePositionNaut miles runAvg speedWind from/ knotsBaromVisibWave heightAir tempDewpointWater temp
2014-Dec-18 05:06N 29°41' W 091°48'15 0.5
2014-Dec-16 21:16N 29°42' W 091°31'7 6.9
2014-Dec-16 20:15N 29°39' W 091°24'4 6.1
2014-Dec-16 19:33N 29°38' W 091°19'7 6.9
2014-Dec-16 18:33N 29°41' W 091°12'2 1.6
2014-Dec-16 17:33N 29°41' W 091°10'0 0.0
2014-Dec-16 16:33N 29°41' W 091°10'0 0.0
2014-Dec-16 15:33N 29°41' W 091°10'0 0.0
2014-Dec-16 14:33N 29°41' W 091°10'0 0.0
2014-Dec-16 13:33N 29°41' W 091°10'0 0.1
2014-Dec-16 12:33N 29°41' W 091°10'4 3.7
2014-Dec-16 11:33N 29°38' W 091°07'5 4.5
2014-Dec-16 10:33N 29°37' W 091°02'4 3.5
2014-Dec-16 09:25N 29°38' W 090°57'1 1.5
2014-Dec-16 08:33N 29°38' W 090°56'0 0.0
2014-Dec-16 07:33N 29°38' W 090°56'0 0.0
2014-Dec-16 06:29N 29°38' W 090°56'0 0.0
2014-Dec-16 04:15N 29°38' W 090°56'2 2.2
2014-Dec-16 03:25N 29°38' W 090°58'4 4.6
2014-Dec-16 02:32N 29°37' W 091°03'5 5.6
2014-Dec-16 01:33N 29°40' W 091°08'3 3.0
2014-Dec-16 00:31N 29°41' W 091°12'2 1.6
2014-Dec-15 23:33N 29°41' W 091°13'1 1.0
2014-Dec-15 22:33N 29°40' W 091°14'0 0.0
2014-Dec-15 21:33N 29°40' W 091°14'3 3.4
2014-Dec-15 20:33N 29°39' W 091°18'5 5.1
2014-Dec-15 19:31N 29°39' W 091°24'6 4.8
2014-Dec-15 18:16N 29°42' W 091°30'  
2014-Dec-12 14:21N 29°45' W 091°44'3 4.2
2014-Dec-12 13:33N 29°42' W 091°46'2 1.6
2014-Dec-12 12:17N 29°41' W 091°48'0 0.0
2014-Dec-12 10:20N 29°41' W 091°48'0 0.0
2014-Dec-12 08:24N 29°41' W 091°48'0 0.0
2014-Dec-12 07:19N 29°41' W 091°48'0 0.0
2014-Dec-12 05:15N 29°41' W 091°48'0 0.0
2014-Dec-11 14:13N 29°41' W 091°48'0 0.0
2014-Dec-11 13:33N 29°41' W 091°48'0 0.0
2014-Dec-11 12:14N 29°41' W 091°48'0 0.0
2014-Dec-11 11:08N 29°41' W 091°48'0 0.0
2014-Dec-11 08:22N 29°41' W 091°48'0 0.0
2014-Dec-11 05:22N 29°41' W 091°48'  
Track history (hours):
 
Tides and Currents Weather Stations Pressure Air Temp Water Temp Dewpoint Dewpoint Depression Visibility Wind Speed Wind Dir Waves Ship Positions

Harry B. Settoon

Owner: Settoon Towing, LLC, Houma, LA. More information available from US FCC via Universal Licensing System and Coast Guard Vessel Documentation Center.

Last reported at 2014-Dec-18 05:06 UTC. Time now 2014-Dec-20 14:23 UTC.
Position N 29°41' W 091°48'.

; draft 1.8 m.

Type: Tug. MMSI: 367369920.

Date/timePositionNaut miles runAvg speedWind from/ knotsBaromVisibWave heightAir tempDewpointWater temp
2014-Dec-18 05:06N 29°41' W 091°48'15 0.5
2014-Dec-16 21:16N 29°42' W 091°31'7 6.9
2014-Dec-16 20:15N 29°39' W 091°24'4 6.1
2014-Dec-16 19:33N 29°38' W 091°19'7 6.9
2014-Dec-16 18:33N 29°41' W 091°12'2 1.6
2014-Dec-16 17:33N 29°41' W 091°10'0 0.0
2014-Dec-16 16:33N 29°41' W 091°10'0 0.0
2014-Dec-16 15:33N 29°41' W 091°10'0 0.0
2014-Dec-16 14:33N 29°41' W 091°10'0 0.0
2014-Dec-16 13:33N 29°41' W 091°10'0 0.1
2014-Dec-16 12:33N 29°41' W 091°10'4 3.7
2014-Dec-16 11:33N 29°38' W 091°07'5 4.5
2014-Dec-16 10:33N 29°37' W 091°02'4 3.5
2014-Dec-16 09:25N 29°38' W 090°57'1 1.5
2014-Dec-16 08:33N 29°38' W 090°56'0 0.0
2014-Dec-16 07:33N 29°38' W 090°56'0 0.0
2014-Dec-16 06:29N 29°38' W 090°56'0 0.0
2014-Dec-16 04:15N 29°38' W 090°56'2 2.2
2014-Dec-16 03:25N 29°38' W 090°58'4 4.6
2014-Dec-16 02:32N 29°37' W 091°03'5 5.6
2014-Dec-16 01:33N 29°40' W 091°08'3 3.0
2014-Dec-16 00:31N 29°41' W 091°12'2 1.6
2014-Dec-15 23:33N 29°41' W 091°13'1 1.0
2014-Dec-15 22:33N 29°40' W 091°14'0 0.0
2014-Dec-15 21:33N 29°40' W 091°14'3 3.4
2014-Dec-15 20:33N 29°39' W 091°18'5 5.1
2014-Dec-15 19:31N 29°39' W 091°24'6 4.8
2014-Dec-15 18:16N 29°42' W 091°30'  
2014-Dec-12 14:21N 29°45' W 091°44'3 4.2
2014-Dec-12 13:33N 29°42' W 091°46'2 1.6
2014-Dec-12 12:17N 29°41' W 091°48'0 0.0
2014-Dec-12 10:20N 29°41' W 091°48'0 0.0
2014-Dec-12 08:24N 29°41' W 091°48'0 0.0
2014-Dec-12 07:19N 29°41' W 091°48'0 0.0
2014-Dec-12 05:15N 29°41' W 091°48'0 0.0
2014-Dec-11 14:13N 29°41' W 091°48'0 0.0
2014-Dec-11 13:33N 29°41' W 091°48'0 0.0
2014-Dec-11 12:14N 29°41' W 091°48'0 0.0
2014-Dec-11 11:08N 29°41' W 091°48'0 0.0
2014-Dec-11 08:22N 29°41' W 091°48'0 0.0
2014-Dec-11 05:22N 29°41' W 091°48'  

Dump ship's entire track history